sensor_id;sensor_type;location;lat;lon;timestamp;P1;durP1;ratioP1;P2;durP2;ratioP2
70228;SDS011;57617;51.988;5.854;2023-02-04T00:01:21;21.75;;;2.70;;
70228;SDS011;57617;51.988;5.854;2023-02-04T00:03:46;21.63;;;3.00;;
70228;SDS011;57617;51.988;5.854;2023-02-04T00:06:11;28.05;;;3.67;;
70228;SDS011;57617;51.988;5.854;2023-02-04T00:08:36;25.08;;;2.78;;
70228;SDS011;57617;51.988;5.854;2023-02-04T00:11:02;23.20;;;2.67;;
70228;SDS011;57617;51.988;5.854;2023-02-04T00:13:28;22.23;;;2.55;;
70228;SDS011;57617;51.988;5.854;2023-02-04T00:15:53;24.42;;;3.15;;
70228;SDS011;57617;51.988;5.854;2023-02-04T00:18:19;21.33;;;3.25;;
70228;SDS011;57617;51.988;5.854;2023-02-04T00:20:44;26.90;;;2.35;;
70228;SDS011;57617;51.988;5.854;2023-02-04T00:23:09;22.38;;;2.80;;
70228;SDS011;57617;51.988;5.854;2023-02-04T00:25:34;20.98;;;3.13;;
70228;SDS011;57617;51.988;5.854;2023-02-04T00:28:00;21.88;;;2.22;;
70228;SDS011;57617;51.988;5.854;2023-02-04T00:30:25;19.20;;;2.22;;
70228;SDS011;57617;51.988;5.854;2023-02-04T00:32:50;18.88;;;2.60;;
70228;SDS011;57617;51.988;5.854;2023-02-04T00:35:18;22.92;;;3.28;;
70228;SDS011;57617;51.988;5.854;2023-02-04T00:37:44;20.33;;;2.42;;
70228;SDS011;57617;51.988;5.854;2023-02-04T00:40:10;23.60;;;2.53;;
70228;SDS011;57617;51.988;5.854;2023-02-04T00:42:35;16.80;;;2.38;;
70228;SDS011;57617;51.988;5.854;2023-02-04T00:45:01;18.27;;;2.15;;
70228;SDS011;57617;51.988;5.854;2023-02-04T00:47:26;15.95;;;2.70;;
70228;SDS011;57617;51.988;5.854;2023-02-04T00:49:51;25.42;;;2.60;;
70228;SDS011;57617;51.988;5.854;2023-02-04T00:52:16;17.83;;;2.42;;
70228;SDS011;57617;51.988;5.854;2023-02-04T00:54:42;25.80;;;2.60;;
70228;SDS011;57617;51.988;5.854;2023-02-04T00:57:07;21.67;;;2.40;;
70228;SDS011;57617;51.988;5.854;2023-02-04T00:59:32;13.38;;;2.92;;
70228;SDS011;57617;51.988;5.854;2023-02-04T01:01:57;20.15;;;2.22;;
70228;SDS011;57617;51.988;5.854;2023-02-04T01:04:24;17.13;;;2.38;;
70228;SDS011;57617;51.988;5.854;2023-02-04T01:06:50;27.35;;;2.85;;
70228;SDS011;57617;51.988;5.854;2023-02-04T01:09:15;21.77;;;2.42;;
70228;SDS011;57617;51.988;5.854;2023-02-04T01:11:41;17.85;;;2.30;;
70228;SDS011;57617;51.988;5.854;2023-02-04T01:14:06;19.33;;;2.58;;
70228;SDS011;57617;51.988;5.854;2023-02-04T01:16:31;19.20;;;2.42;;
70228;SDS011;57617;51.988;5.854;2023-02-04T01:18:57;20.15;;;2.35;;
70228;SDS011;57617;51.988;5.854;2023-02-04T01:21:23;18.77;;;2.53;;
70228;SDS011;57617;51.988;5.854;2023-02-04T01:23:48;22.48;;;2.30;;
70228;SDS011;57617;51.988;5.854;2023-02-04T01:26:19;18.98;;;2.83;;
70228;SDS011;57617;51.988;5.854;2023-02-04T01:28:44;20.50;;;2.40;;
70228;SDS011;57617;51.988;5.854;2023-02-04T01:31:10;18.63;;;2.30;;
70228;SDS011;57617;51.988;5.854;2023-02-04T01:33:35;23.00;;;2.42;;
70228;SDS011;57617;51.988;5.854;2023-02-04T01:36:01;26.35;;;2.90;;
70228;SDS011;57617;51.988;5.854;2023-02-04T01:38:26;20.58;;;2.42;;
70228;SDS011;57617;51.988;5.854;2023-02-04T01:40:51;23.52;;;2.45;;
70228;SDS011;57617;51.988;5.854;2023-02-04T01:43:17;19.88;;;2.22;;
70228;SDS011;57617;51.988;5.854;2023-02-04T01:45:43;21.48;;;2.60;;
70228;SDS011;57617;51.988;5.854;2023-02-04T01:48:10;22.30;;;2.63;;
70228;SDS011;57617;51.988;5.854;2023-02-04T01:50:37;14.32;;;2.50;;
70228;SDS011;57617;51.988;5.854;2023-02-04T01:53:02;23.00;;;2.60;;
70228;SDS011;57617;51.988;5.854;2023-02-04T01:55:29;20.90;;;2.42;;
70228;SDS011;57617;51.988;5.854;2023-02-04T01:57:56;19.95;;;2.40;;
70228;SDS011;57617;51.988;5.854;2023-02-04T02:00:24;19.60;;;2.42;;
70228;SDS011;57617;51.988;5.854;2023-02-04T02:02:51;20.50;;;2.42;;
70228;SDS011;57617;51.988;5.854;2023-02-04T02:05:20;22.90;;;2.67;;
70228;SDS011;57617;51.988;5.854;2023-02-04T02:07:48;18.17;;;2.55;;
70228;SDS011;57617;51.988;5.854;2023-02-04T02:10:16;16.90;;;2.10;;
70228;SDS011;57617;51.988;5.854;2023-02-04T02:12:43;13.93;;;1.95;;
70228;SDS011;57617;51.988;5.854;2023-02-04T02:15:10;19.98;;;2.03;;
70228;SDS011;57617;51.988;5.854;2023-02-04T02:17:37;19.85;;;2.53;;
70228;SDS011;57617;51.988;5.854;2023-02-04T02:20:05;21.13;;;2.28;;
70228;SDS011;57617;51.988;5.854;2023-02-04T02:22:33;15.32;;;2.40;;
70228;SDS011;57617;51.988;5.854;2023-02-04T02:25:09;25.27;;;3.00;;
70228;SDS011;57617;51.988;5.854;2023-02-04T02:27:35;27.20;;;2.38;;
70228;SDS011;57617;51.988;5.854;2023-02-04T02:30:01;25.40;;;2.30;;
70228;SDS011;57617;51.988;5.854;2023-02-04T02:32:26;27.52;;;3.38;;
70228;SDS011;57617;51.988;5.854;2023-02-04T02:34:51;22.70;;;2.05;;
70228;SDS011;57617;51.988;5.854;2023-02-04T02:37:17;21.10;;;2.40;;
70228;SDS011;57617;51.988;5.854;2023-02-04T02:39:43;16.55;;;2.22;;
70228;SDS011;57617;51.988;5.854;2023-02-04T02:42:10;20.67;;;2.40;;
70228;SDS011;57617;51.988;5.854;2023-02-04T02:44:39;21.25;;;2.58;;
70228;SDS011;57617;51.988;5.854;2023-02-04T02:47:04;33.72;;;4.57;;
70228;SDS011;57617;51.988;5.854;2023-02-04T02:49:30;17.75;;;2.38;;
70228;SDS011;57617;51.988;5.854;2023-02-04T02:51:57;19.70;;;2.15;;
70228;SDS011;57617;51.988;5.854;2023-02-04T02:54:23;20.33;;;2.60;;
70228;SDS011;57617;51.988;5.854;2023-02-04T02:56:50;19.10;;;2.67;;
70228;SDS011;57617;51.988;5.854;2023-02-04T02:59:17;19.63;;;2.60;;
70228;SDS011;57617;51.988;5.854;2023-02-04T03:01:43;17.55;;;2.75;;
70228;SDS011;57617;51.988;5.854;2023-02-04T03:04:12;12.95;;;2.03;;
70228;SDS011;57617;51.988;5.854;2023-02-04T03:06:38;19.25;;;2.67;;
70228;SDS011;57617;51.988;5.854;2023-02-04T03:09:03;17.58;;;2.10;;
70228;SDS011;57617;51.988;5.854;2023-02-04T03:11:29;18.27;;;2.50;;
70228;SDS011;57617;51.988;5.854;2023-02-04T03:13:56;19.45;;;2.00;;
70228;SDS011;57617;51.988;5.854;2023-02-04T03:16:25;20.15;;;2.40;;
70228;SDS011;57617;51.988;5.854;2023-02-04T03:18:51;14.05;;;2.00;;
70228;SDS011;57617;51.988;5.854;2023-02-04T03:21:16;25.27;;;2.63;;
70228;SDS011;57617;51.988;5.854;2023-02-04T03:23:41;26.70;;;2.70;;
70228;SDS011;57617;51.988;5.854;2023-02-04T03:26:07;21.90;;;2.10;;
70228;SDS011;57617;51.988;5.854;2023-02-04T03:28:32;19.40;;;2.10;;
70228;SDS011;57617;51.988;5.854;2023-02-04T03:30:58;15.87;;;1.97;;
70228;SDS011;57617;51.988;5.854;2023-02-04T03:33:25;26.45;;;2.40;;
70228;SDS011;57617;51.988;5.854;2023-02-04T03:35:55;22.50;;;2.03;;
70228;SDS011;57617;51.988;5.854;2023-02-04T03:38:20;21.63;;;2.40;;
70228;SDS011;57617;51.988;5.854;2023-02-04T03:40:46;14.32;;;2.13;;
70228;SDS011;57617;51.988;5.854;2023-02-04T03:43:11;17.13;;;2.45;;
70228;SDS011;57617;51.988;5.854;2023-02-04T03:45:36;14.27;;;2.40;;
70228;SDS011;57617;51.988;5.854;2023-02-04T03:48:02;16.83;;;2.47;;
70228;SDS011;57617;51.988;5.854;2023-02-04T03:50:27;15.50;;;2.20;;
70228;SDS011;57617;51.988;5.854;2023-02-04T03:52:52;17.17;;;2.17;;
70228;SDS011;57617;51.988;5.854;2023-02-04T03:55:18;22.17;;;2.85;;
70228;SDS011;57617;51.988;5.854;2023-02-04T03:57:43;16.40;;;3.03;;
70228;SDS011;57617;51.988;5.854;2023-02-04T04:00:09;21.67;;;2.37;;
70228;SDS011;57617;51.988;5.854;2023-02-04T04:02:35;27.13;;;2.70;;
70228;SDS011;57617;51.988;5.854;2023-02-04T04:05:00;16.85;;;2.40;;
70228;SDS011;57617;51.988;5.854;2023-02-04T04:07:25;17.27;;;2.17;;
70228;SDS011;57617;51.988;5.854;2023-02-04T04:09:51;25.83;;;2.40;;
70228;SDS011;57617;51.988;5.854;2023-02-04T04:12:16;15.15;;;1.95;;
70228;SDS011;57617;51.988;5.854;2023-02-04T04:14:41;18.75;;;2.63;;
70228;SDS011;57617;51.988;5.854;2023-02-04T04:17:06;17.02;;;2.33;;
70228;SDS011;57617;51.988;5.854;2023-02-04T04:19:32;18.88;;;2.72;;
70228;SDS011;57617;51.988;5.854;2023-02-04T04:21:57;15.73;;;2.00;;
70228;SDS011;57617;51.988;5.854;2023-02-04T04:24:22;22.90;;;3.15;;
70228;SDS011;57617;51.988;5.854;2023-02-04T04:26:48;17.27;;;2.27;;
70228;SDS011;57617;51.988;5.854;2023-02-04T04:29:13;24.90;;;2.92;;
70228;SDS011;57617;51.988;5.854;2023-02-04T04:31:38;22.05;;;2.40;;
70228;SDS011;57617;51.988;5.854;2023-02-04T04:34:04;17.90;;;2.40;;
70228;SDS011;57617;51.988;5.854;2023-02-04T04:36:29;22.98;;;2.33;;
70228;SDS011;57617;51.988;5.854;2023-02-04T04:38:54;19.75;;;2.95;;
70228;SDS011;57617;51.988;5.854;2023-02-04T04:41:19;19.73;;;2.38;;
70228;SDS011;57617;51.988;5.854;2023-02-04T04:43:45;21.30;;;2.33;;
70228;SDS011;57617;51.988;5.854;2023-02-04T04:46:10;18.45;;;2.30;;
70228;SDS011;57617;51.988;5.854;2023-02-04T04:48:35;19.50;;;2.65;;
70228;SDS011;57617;51.988;5.854;2023-02-04T04:51:00;20.80;;;2.57;;
70228;SDS011;57617;51.988;5.854;2023-02-04T04:53:26;24.63;;;2.65;;
70228;SDS011;57617;51.988;5.854;2023-02-04T04:55:51;23.52;;;2.40;;
70228;SDS011;57617;51.988;5.854;2023-02-04T04:58:16;20.23;;;2.80;;
70228;SDS011;57617;51.988;5.854;2023-02-04T05:00:42;21.05;;;3.20;;
70228;SDS011;57617;51.988;5.854;2023-02-04T05:03:07;19.33;;;2.35;;
70228;SDS011;57617;51.988;5.854;2023-02-04T05:05:32;22.80;;;3.07;;
70228;SDS011;57617;51.988;5.854;2023-02-04T05:08:03;19.35;;;2.28;;
70228;SDS011;57617;51.988;5.854;2023-02-04T05:10:29;18.80;;;2.30;;
70228;SDS011;57617;51.988;5.854;2023-02-04T05:12:54;32.35;;;3.05;;
70228;SDS011;57617;51.988;5.854;2023-02-04T05:15:19;26.92;;;2.97;;
70228;SDS011;57617;51.988;5.854;2023-02-04T05:17:45;17.23;;;2.40;;
70228;SDS011;57617;51.988;5.854;2023-02-04T05:20:10;19.53;;;2.53;;
70228;SDS011;57617;51.988;5.854;2023-02-04T05:22:36;25.55;;;2.83;;
70228;SDS011;57617;51.988;5.854;2023-02-04T05:25:01;23.13;;;3.07;;
70228;SDS011;57617;51.988;5.854;2023-02-04T05:27:26;28.03;;;2.97;;
70228;SDS011;57617;51.988;5.854;2023-02-04T05:29:51;20.87;;;2.90;;
70228;SDS011;57617;51.988;5.854;2023-02-04T05:32:18;37.72;;;3.40;;
70228;SDS011;57617;51.988;5.854;2023-02-04T05:34:43;22.33;;;2.97;;
70228;SDS011;57617;51.988;5.854;2023-02-04T05:37:08;29.98;;;3.40;;
70228;SDS011;57617;51.988;5.854;2023-02-04T05:39:33;22.60;;;2.80;;
70228;SDS011;57617;51.988;5.854;2023-02-04T05:41:59;17.13;;;2.47;;
70228;SDS011;57617;51.988;5.854;2023-02-04T05:44:24;29.87;;;3.83;;
70228;SDS011;57617;51.988;5.854;2023-02-04T05:46:49;33.00;;;3.00;;
70228;SDS011;57617;51.988;5.854;2023-02-04T05:49:15;28.37;;;3.30;;
70228;SDS011;57617;51.988;5.854;2023-02-04T05:51:40;23.00;;;2.70;;
70228;SDS011;57617;51.988;5.854;2023-02-04T05:54:05;22.53;;;3.10;;
70228;SDS011;57617;51.988;5.854;2023-02-04T05:56:31;19.57;;;2.90;;
70228;SDS011;57617;51.988;5.854;2023-02-04T05:58:56;26.95;;;3.17;;
70228;SDS011;57617;51.988;5.854;2023-02-04T06:01:21;23.85;;;3.30;;
70228;SDS011;57617;51.988;5.854;2023-02-04T06:03:46;17.35;;;2.88;;
70228;SDS011;57617;51.988;5.854;2023-02-04T06:06:12;27.83;;;3.28;;
70228;SDS011;57617;51.988;5.854;2023-02-04T06:08:37;20.08;;;2.97;;
70228;SDS011;57617;51.988;5.854;2023-02-04T06:11:02;20.52;;;3.40;;
70228;SDS011;57617;51.988;5.854;2023-02-04T06:13:27;27.35;;;3.03;;
70228;SDS011;57617;51.988;5.854;2023-02-04T06:15:53;23.60;;;3.05;;
70228;SDS011;57617;51.988;5.854;2023-02-04T06:18:18;29.67;;;3.40;;
70228;SDS011;57617;51.988;5.854;2023-02-04T06:20:43;25.35;;;3.17;;
70228;SDS011;57617;51.988;5.854;2023-02-04T06:23:08;24.00;;;3.03;;
70228;SDS011;57617;51.988;5.854;2023-02-04T06:25:35;22.63;;;3.08;;
70228;SDS011;57617;51.988;5.854;2023-02-04T06:28:00;22.42;;;2.80;;
70228;SDS011;57617;51.988;5.854;2023-02-04T06:30:25;23.60;;;3.08;;
70228;SDS011;57617;51.988;5.854;2023-02-04T06:32:51;34.67;;;3.97;;
70228;SDS011;57617;51.988;5.854;2023-02-04T06:35:16;32.53;;;3.77;;
70228;SDS011;57617;51.988;5.854;2023-02-04T06:37:42;27.33;;;3.33;;
70228;SDS011;57617;51.988;5.854;2023-02-04T06:40:08;27.65;;;4.20;;
70228;SDS011;57617;51.988;5.854;2023-02-04T06:42:34;28.67;;;3.30;;
70228;SDS011;57617;51.988;5.854;2023-02-04T06:44:59;25.10;;;3.45;;
70228;SDS011;57617;51.988;5.854;2023-02-04T06:47:25;26.60;;;3.70;;
70228;SDS011;57617;51.988;5.854;2023-02-04T06:49:50;27.17;;;3.55;;
70228;SDS011;57617;51.988;5.854;2023-02-04T06:52:15;19.52;;;3.65;;
70228;SDS011;57617;51.988;5.854;2023-02-04T06:54:40;34.27;;;4.20;;
70228;SDS011;57617;51.988;5.854;2023-02-04T06:57:06;20.35;;;3.38;;
70228;SDS011;57617;51.988;5.854;2023-02-04T06:59:35;25.65;;;3.33;;
70228;SDS011;57617;51.988;5.854;2023-02-04T07:02:02;39.00;;;4.18;;
70228;SDS011;57617;51.988;5.854;2023-02-04T07:04:28;23.98;;;3.05;;
70228;SDS011;57617;51.988;5.854;2023-02-04T07:06:53;29.27;;;3.67;;
70228;SDS011;57617;51.988;5.854;2023-02-04T07:09:19;25.42;;;3.30;;
70228;SDS011;57617;51.988;5.854;2023-02-04T07:11:44;20.65;;;2.85;;
70228;SDS011;57617;51.988;5.854;2023-02-04T07:14:09;42.05;;;3.63;;
70228;SDS011;57617;51.988;5.854;2023-02-04T07:16:35;34.05;;;3.70;;
70228;SDS011;57617;51.988;5.854;2023-02-04T07:19:01;25.63;;;3.60;;
70228;SDS011;57617;51.988;5.854;2023-02-04T07:21:26;27.92;;;3.72;;
70228;SDS011;57617;51.988;5.854;2023-02-04T07:23:51;27.27;;;3.17;;
70228;SDS011;57617;51.988;5.854;2023-02-04T07:26:17;31.75;;;4.57;;
70228;SDS011;57617;51.988;5.854;2023-02-04T07:28:42;30.50;;;3.65;;
70228;SDS011;57617;51.988;5.854;2023-02-04T07:31:08;33.88;;;4.03;;
70228;SDS011;57617;51.988;5.854;2023-02-04T07:33:33;30.60;;;3.75;;
70228;SDS011;57617;51.988;5.854;2023-02-04T07:35:59;25.15;;;3.85;;
70228;SDS011;57617;51.988;5.854;2023-02-04T07:38:24;24.20;;;3.63;;
70228;SDS011;57617;51.988;5.854;2023-02-04T07:40:49;29.13;;;3.75;;
70228;SDS011;57617;51.988;5.854;2023-02-04T07:43:15;29.45;;;4.15;;
70228;SDS011;57617;51.988;5.854;2023-02-04T07:45:40;26.00;;;3.60;;
70228;SDS011;57617;51.988;5.854;2023-02-04T07:48:05;30.60;;;3.67;;
70228;SDS011;57617;51.988;5.854;2023-02-04T07:50:30;28.90;;;4.13;;
70228;SDS011;57617;51.988;5.854;2023-02-04T07:52:56;26.70;;;3.70;;
70228;SDS011;57617;51.988;5.854;2023-02-04T07:55:21;24.48;;;3.53;;
70228;SDS011;57617;51.988;5.854;2023-02-04T07:57:46;36.07;;;4.70;;
70228;SDS011;57617;51.988;5.854;2023-02-04T08:00:12;31.33;;;4.10;;
70228;SDS011;57617;51.988;5.854;2023-02-04T08:02:38;38.50;;;4.65;;
70228;SDS011;57617;51.988;5.854;2023-02-04T08:05:05;34.47;;;4.22;;
70228;SDS011;57617;51.988;5.854;2023-02-04T08:07:31;38.60;;;4.78;;
70228;SDS011;57617;51.988;5.854;2023-02-04T08:09:56;54.08;;;5.57;;
70228;SDS011;57617;51.988;5.854;2023-02-04T08:12:21;40.75;;;4.90;;
70228;SDS011;57617;51.988;5.854;2023-02-04T08:14:46;32.08;;;4.80;;
70228;SDS011;57617;51.988;5.854;2023-02-04T08:17:12;39.63;;;6.32;;
70228;SDS011;57617;51.988;5.854;2023-02-04T08:19:37;46.17;;;5.57;;
70228;SDS011;57617;51.988;5.854;2023-02-04T08:22:02;41.50;;;5.05;;
70228;SDS011;57617;51.988;5.854;2023-02-04T08:24:27;36.20;;;5.93;;
70228;SDS011;57617;51.988;5.854;2023-02-04T08:26:53;38.33;;;5.57;;
70228;SDS011;57617;51.988;5.854;2023-02-04T08:29:18;38.75;;;6.40;;
70228;SDS011;57617;51.988;5.854;2023-02-04T08:31:43;40.47;;;5.30;;
70228;SDS011;57617;51.988;5.854;2023-02-04T08:34:09;44.10;;;6.22;;
70228;SDS011;57617;51.988;5.854;2023-02-04T08:36:34;43.58;;;6.00;;
70228;SDS011;57617;51.988;5.854;2023-02-04T08:38:59;38.97;;;5.80;;
70228;SDS011;57617;51.988;5.854;2023-02-04T08:41:25;28.45;;;5.18;;
70228;SDS011;57617;51.988;5.854;2023-02-04T08:43:50;35.58;;;5.40;;
70228;SDS011;57617;51.988;5.854;2023-02-04T08:46:15;41.58;;;6.10;;
70228;SDS011;57617;51.988;5.854;2023-02-04T08:48:41;37.53;;;5.65;;
70228;SDS011;57617;51.988;5.854;2023-02-04T08:51:06;43.35;;;5.95;;
70228;SDS011;57617;51.988;5.854;2023-02-04T08:53:31;41.95;;;6.18;;
70228;SDS011;57617;51.988;5.854;2023-02-04T08:55:56;40.42;;;6.47;;
70228;SDS011;57617;51.988;5.854;2023-02-04T08:58:22;36.22;;;5.65;;
70228;SDS011;57617;51.988;5.854;2023-02-04T09:00:47;45.28;;;5.80;;
70228;SDS011;57617;51.988;5.854;2023-02-04T09:03:12;39.65;;;5.95;;
70228;SDS011;57617;51.988;5.854;2023-02-04T09:05:38;34.88;;;6.28;;
70228;SDS011;57617;51.988;5.854;2023-02-04T09:08:03;34.13;;;6.15;;
70228;SDS011;57617;51.988;5.854;2023-02-04T09:10:28;34.13;;;5.47;;
70228;SDS011;57617;51.988;5.854;2023-02-04T09:12:54;33.05;;;5.05;;
70228;SDS011;57617;51.988;5.854;2023-02-04T09:15:20;38.90;;;6.30;;
70228;SDS011;57617;51.988;5.854;2023-02-04T09:17:49;33.35;;;5.80;;
70228;SDS011;57617;51.988;5.854;2023-02-04T09:20:19;43.25;;;5.63;;
70228;SDS011;57617;51.988;5.854;2023-02-04T09:22:45;36.80;;;5.30;;
70228;SDS011;57617;51.988;5.854;2023-02-04T09:25:12;52.60;;;6.28;;
70228;SDS011;57617;51.988;5.854;2023-02-04T09:27:37;36.95;;;5.88;;
70228;SDS011;57617;51.988;5.854;2023-02-04T09:30:03;35.72;;;4.68;;
70228;SDS011;57617;51.988;5.854;2023-02-04T09:32:28;41.75;;;5.20;;
70228;SDS011;57617;51.988;5.854;2023-02-04T09:34:53;33.55;;;4.50;;
70228;SDS011;57617;51.988;5.854;2023-02-04T09:37:19;36.97;;;5.05;;
70228;SDS011;57617;51.988;5.854;2023-02-04T09:39:44;34.30;;;5.13;;
70228;SDS011;57617;51.988;5.854;2023-02-04T09:42:13;33.83;;;4.35;;
70228;SDS011;57617;51.988;5.854;2023-02-04T09:44:39;37.42;;;5.07;;
70228;SDS011;57617;51.988;5.854;2023-02-04T09:47:04;36.75;;;4.45;;
70228;SDS011;57617;51.988;5.854;2023-02-04T09:49:30;29.92;;;4.05;;
70228;SDS011;57617;51.988;5.854;2023-02-04T09:51:56;33.08;;;4.32;;
70228;SDS011;57617;51.988;5.854;2023-02-04T09:54:21;35.65;;;4.47;;
70228;SDS011;57617;51.988;5.854;2023-02-04T09:56:47;27.52;;;4.60;;
70228;SDS011;57617;51.988;5.854;2023-02-04T09:59:22;38.05;;;4.93;;
70228;SDS011;57617;51.988;5.854;2023-02-04T10:01:53;37.85;;;5.00;;
70228;SDS011;57617;51.988;5.854;2023-02-04T10:04:22;29.13;;;5.40;;
70228;SDS011;57617;51.988;5.854;2023-02-04T10:06:48;38.42;;;4.88;;
70228;SDS011;57617;51.988;5.854;2023-02-04T10:09:13;33.22;;;4.32;;
70228;SDS011;57617;51.988;5.854;2023-02-04T10:11:40;31.65;;;5.10;;
70228;SDS011;57617;51.988;5.854;2023-02-04T10:14:10;45.15;;;5.32;;
70228;SDS011;57617;51.988;5.854;2023-02-04T10:16:38;31.10;;;4.03;;
70228;SDS011;57617;51.988;5.854;2023-02-04T10:19:09;37.95;;;5.28;;
70228;SDS011;57617;51.988;5.854;2023-02-04T10:21:38;32.88;;;4.35;;
70228;SDS011;57617;51.988;5.854;2023-02-04T10:24:08;40.60;;;4.72;;
70228;SDS011;57617;51.988;5.854;2023-02-04T10:26:38;33.70;;;4.72;;
70228;SDS011;57617;51.988;5.854;2023-02-04T10:29:05;47.53;;;4.82;;
70228;SDS011;57617;51.988;5.854;2023-02-04T10:31:39;37.45;;;5.63;;
70228;SDS011;57617;51.988;5.854;2023-02-04T10:36:49;41.28;;;4.28;;
70228;SDS011;57617;51.988;5.854;2023-02-04T10:39:23;27.92;;;3.88;;
70228;SDS011;57617;51.988;5.854;2023-02-04T10:41:51;37.28;;;3.65;;
70228;SDS011;57617;51.988;5.854;2023-02-04T10:44:31;40.60;;;4.20;;
70228;SDS011;57617;51.988;5.854;2023-02-04T10:49:32;33.92;;;3.83;;
70228;SDS011;57617;51.988;5.854;2023-02-04T10:51:57;28.55;;;4.28;;
70228;SDS011;57617;51.988;5.854;2023-02-04T10:54:27;36.78;;;3.53;;
70228;SDS011;57617;51.988;5.854;2023-02-04T10:59:25;35.42;;;4.80;;
70228;SDS011;57617;51.988;5.854;2023-02-04T11:01:52;31.02;;;3.58;;
70228;SDS011;57617;51.988;5.854;2023-02-04T11:04:19;30.48;;;3.63;;
70228;SDS011;57617;51.988;5.854;2023-02-04T11:06:44;35.80;;;3.35;;
70228;SDS011;57617;51.988;5.854;2023-02-04T11:09:13;23.50;;;3.03;;
70228;SDS011;57617;51.988;5.854;2023-02-04T11:11:44;32.20;;;3.60;;
70228;SDS011;57617;51.988;5.854;2023-02-04T11:14:21;23.02;;;3.00;;
70228;SDS011;57617;51.988;5.854;2023-02-04T11:16:49;30.58;;;3.40;;
70228;SDS011;57617;51.988;5.854;2023-02-04T11:19:14;35.10;;;4.20;;
70228;SDS011;57617;51.988;5.854;2023-02-04T11:21:42;23.95;;;3.17;;
70228;SDS011;57617;51.988;5.854;2023-02-04T11:31:55;26.27;;;3.35;;
70228;SDS011;57617;51.988;5.854;2023-02-04T11:34:25;32.10;;;3.28;;
70228;SDS011;57617;51.988;5.854;2023-02-04T11:39:21;31.90;;;3.53;;
70228;SDS011;57617;51.988;5.854;2023-02-04T11:41:49;29.73;;;3.30;;
70228;SDS011;57617;51.988;5.854;2023-02-04T11:44:14;23.55;;;2.72;;
70228;SDS011;57617;51.988;5.854;2023-02-04T11:46:41;38.40;;;3.72;;
70228;SDS011;57617;51.988;5.854;2023-02-04T11:49:17;31.15;;;3.53;;
70228;SDS011;57617;51.988;5.854;2023-02-04T11:51:44;21.75;;;2.75;;
70228;SDS011;57617;51.988;5.854;2023-02-04T11:54:11;26.13;;;3.13;;
70228;SDS011;57617;51.988;5.854;2023-02-04T11:56:41;23.52;;;2.85;;
70228;SDS011;57617;51.988;5.854;2023-02-04T11:59:08;27.35;;;3.03;;
70228;SDS011;57617;51.988;5.854;2023-02-04T12:01:35;26.10;;;3.75;;
70228;SDS011;57617;51.988;5.854;2023-02-04T12:04:02;23.20;;;2.78;;
70228;SDS011;57617;51.988;5.854;2023-02-04T12:06:31;27.42;;;2.72;;
70228;SDS011;57617;51.988;5.854;2023-02-04T12:11:29;24.02;;;2.85;;
70228;SDS011;57617;51.988;5.854;2023-02-04T12:13:55;26.73;;;2.90;;
70228;SDS011;57617;51.988;5.854;2023-02-04T12:16:22;20.10;;;3.20;;
70228;SDS011;57617;51.988;5.854;2023-02-04T12:18:48;25.90;;;3.40;;
70228;SDS011;57617;51.988;5.854;2023-02-04T12:21:14;28.05;;;3.20;;
70228;SDS011;57617;51.988;5.854;2023-02-04T12:23:40;27.25;;;3.30;;
70228;SDS011;57617;51.988;5.854;2023-02-04T12:26:08;23.02;;;3.00;;
70228;SDS011;57617;51.988;5.854;2023-02-04T12:28:34;28.95;;;3.53;;
70228;SDS011;57617;51.988;5.854;2023-02-04T12:30:59;27.05;;;2.70;;
70228;SDS011;57617;51.988;5.854;2023-02-04T12:33:25;20.30;;;2.45;;
70228;SDS011;57617;51.988;5.854;2023-02-04T12:35:50;17.60;;;2.33;;
70228;SDS011;57617;51.988;5.854;2023-02-04T12:38:16;21.73;;;2.92;;
70228;SDS011;57617;51.988;5.854;2023-02-04T12:40:41;22.55;;;2.42;;
70228;SDS011;57617;51.988;5.854;2023-02-04T12:43:06;25.00;;;3.28;;
70228;SDS011;57617;51.988;5.854;2023-02-04T12:45:32;22.15;;;3.13;;
70228;SDS011;57617;51.988;5.854;2023-02-04T12:47:57;31.77;;;3.30;;
70228;SDS011;57617;51.988;5.854;2023-02-04T12:50:23;17.48;;;2.40;;
70228;SDS011;57617;51.988;5.854;2023-02-04T12:52:50;33.05;;;3.72;;
70228;SDS011;57617;51.988;5.854;2023-02-04T12:55:16;25.70;;;3.42;;
70228;SDS011;57617;51.988;5.854;2023-02-04T12:57:42;26.98;;;3.72;;
70228;SDS011;57617;51.988;5.854;2023-02-04T13:00:08;30.85;;;2.88;;
70228;SDS011;57617;51.988;5.854;2023-02-04T13:02:34;22.83;;;3.10;;
70228;SDS011;57617;51.988;5.854;2023-02-04T13:04:59;22.35;;;3.15;;
70228;SDS011;57617;51.988;5.854;2023-02-04T13:07:25;25.48;;;3.38;;
70228;SDS011;57617;51.988;5.854;2023-02-04T13:09:50;21.42;;;2.63;;
70228;SDS011;57617;51.988;5.854;2023-02-04T13:12:16;24.63;;;2.65;;
70228;SDS011;57617;51.988;5.854;2023-02-04T13:14:42;23.70;;;3.22;;
70228;SDS011;57617;51.988;5.854;2023-02-04T13:17:07;29.60;;;3.78;;
70228;SDS011;57617;51.988;5.854;2023-02-04T13:19:33;20.27;;;2.80;;
70228;SDS011;57617;51.988;5.854;2023-02-04T13:21:59;29.52;;;2.92;;
70228;SDS011;57617;51.988;5.854;2023-02-04T13:24:25;18.92;;;3.40;;
70228;SDS011;57617;51.988;5.854;2023-02-04T13:26:51;24.20;;;3.15;;
70228;SDS011;57617;51.988;5.854;2023-02-04T13:29:16;24.67;;;3.63;;
70228;SDS011;57617;51.988;5.854;2023-02-04T13:31:42;25.90;;;4.07;;
70228;SDS011;57617;51.988;5.854;2023-02-04T13:34:07;23.10;;;3.22;;
70228;SDS011;57617;51.988;5.854;2023-02-04T13:36:32;19.45;;;3.40;;
70228;SDS011;57617;51.988;5.854;2023-02-04T13:38:58;23.38;;;3.05;;
70228;SDS011;57617;51.988;5.854;2023-02-04T13:41:24;26.75;;;3.00;;
70228;SDS011;57617;51.988;5.854;2023-02-04T13:43:50;23.20;;;2.78;;
70228;SDS011;57617;51.988;5.854;2023-02-04T13:46:15;90.88;;;7.40;;
70228;SDS011;57617;51.988;5.854;2023-02-04T13:48:41;44.92;;;4.63;;
70228;SDS011;57617;51.988;5.854;2023-02-04T13:51:06;24.00;;;2.92;;
70228;SDS011;57617;51.988;5.854;2023-02-04T13:53:31;16.58;;;2.78;;
70228;SDS011;57617;51.988;5.854;2023-02-04T13:55:57;21.63;;;3.03;;
70228;SDS011;57617;51.988;5.854;2023-02-04T13:58:22;21.00;;;2.88;;
70228;SDS011;57617;51.988;5.854;2023-02-04T14:00:48;20.48;;;2.80;;
70228;SDS011;57617;51.988;5.854;2023-02-04T14:03:13;21.15;;;3.05;;
70228;SDS011;57617;51.988;5.854;2023-02-04T14:05:39;26.90;;;3.00;;
70228;SDS011;57617;51.988;5.854;2023-02-04T14:08:04;18.35;;;2.90;;
70228;SDS011;57617;51.988;5.854;2023-02-04T14:10:29;23.65;;;3.13;;
70228;SDS011;57617;51.988;5.854;2023-02-04T14:12:55;18.75;;;2.83;;
70228;SDS011;57617;51.988;5.854;2023-02-04T14:15:20;20.30;;;2.90;;
70228;SDS011;57617;51.988;5.854;2023-02-04T14:17:45;26.95;;;3.13;;
70228;SDS011;57617;51.988;5.854;2023-02-04T14:20:11;15.82;;;2.25;;
70228;SDS011;57617;51.988;5.854;2023-02-04T14:22:36;24.73;;;3.17;;
70228;SDS011;57617;51.988;5.854;2023-02-04T14:25:01;19.73;;;2.85;;
70228;SDS011;57617;51.988;5.854;2023-02-04T14:27:26;20.48;;;4.03;;
70228;SDS011;57617;51.988;5.854;2023-02-04T14:29:52;21.90;;;3.05;;
70228;SDS011;57617;51.988;5.854;2023-02-04T14:32:17;22.45;;;3.00;;
70228;SDS011;57617;51.988;5.854;2023-02-04T14:34:44;22.20;;;2.97;;
70228;SDS011;57617;51.988;5.854;2023-02-04T14:37:10;21.45;;;2.90;;
70228;SDS011;57617;51.988;5.854;2023-02-04T14:39:35;21.30;;;2.88;;
70228;SDS011;57617;51.988;5.854;2023-02-04T14:42:01;33.15;;;3.10;;
70228;SDS011;57617;51.988;5.854;2023-02-04T14:44:29;39.40;;;16.08;;
70228;SDS011;57617;51.988;5.854;2023-02-04T14:46:54;58.13;;;38.47;;